sensor_id;sensor_type;location;lat;lon;timestamp;temperature;humidity
86361;SHT31;77015;51.686;4.210;2024-03-23T00:54:22;8.71;71.02
86361;SHT31;77015;51.686;4.210;2024-03-23T00:56:48;8.70;71.02
86361;SHT31;77015;51.686;4.210;2024-03-23T00:59:13;8.74;71.07
86361;SHT31;77015;51.686;4.210;2024-03-23T01:01:39;8.68;71.18
86361;SHT31;77015;51.686;4.210;2024-03-23T01:04:04;8.65;72.53
86361;SHT31;77015;51.686;4.210;2024-03-23T01:06:30;8.61;72.17
86361;SHT31;77015;51.686;4.210;2024-03-23T01:08:55;8.57;72.37
86361;SHT31;77015;51.686;4.210;2024-03-23T01:11:21;8.52;72.64
86361;SHT31;77015;51.686;4.210;2024-03-23T01:13:46;8.49;73.21
86361;SHT31;77015;51.686;4.210;2024-03-23T01:16:12;8.44;73.65
86361;SHT31;77015;51.686;4.210;2024-03-23T01:18:37;8.36;74.07
86361;SHT31;77015;51.686;4.210;2024-03-23T01:21:03;8.37;74.00
86361;SHT31;77015;51.686;4.210;2024-03-23T01:23:28;8.29;74.41
86361;SHT31;77015;51.686;4.210;2024-03-23T01:25:54;8.21;74.20
86361;SHT31;77015;51.686;4.210;2024-03-23T01:28:21;8.13;74.09
86361;SHT31;77015;51.686;4.210;2024-03-23T01:30:46;8.09;74.33
86361;SHT31;77015;51.686;4.210;2024-03-23T01:33:12;8.06;74.44
86361;SHT31;77015;51.686;4.210;2024-03-23T01:35:38;8.07;74.98
86361;SHT31;77015;51.686;4.210;2024-03-23T01:38:03;8.06;75.11
86361;SHT31;77015;51.686;4.210;2024-03-23T01:40:29;7.93;74.89
86361;SHT31;77015;51.686;4.210;2024-03-23T01:42:58;7.93;74.98
86361;SHT31;77015;51.686;4.210;2024-03-23T01:45:24;7.95;74.95
86361;SHT31;77015;51.686;4.210;2024-03-23T01:47:51;7.91;74.84
86361;SHT31;77015;51.686;4.210;2024-03-23T01:50:19;7.88;75.00
86361;SHT31;77015;51.686;4.210;2024-03-23T01:52:45;7.78;74.97
86361;SHT31;77015;51.686;4.210;2024-03-23T01:55:10;7.75;75.28
86361;SHT31;77015;51.686;4.210;2024-03-23T01:57:36;7.71;75.55
86361;SHT31;77015;51.686;4.210;2024-03-23T02:00:01;7.72;75.41
86361;SHT31;77015;51.686;4.210;2024-03-23T02:02:27;7.68;75.44
86361;SHT31;77015;51.686;4.210;2024-03-23T02:04:53;7.72;74.88
86361;SHT31;77015;51.686;4.210;2024-03-23T02:07:18;7.70;75.15
86361;SHT31;77015;51.686;4.210;2024-03-23T02:09:44;7.68;75.20
86361;SHT31;77015;51.686;4.210;2024-03-23T02:12:09;7.67;75.54
86361;SHT31;77015;51.686;4.210;2024-03-23T02:14:35;7.61;75.31
86361;SHT31;77015;51.686;4.210;2024-03-23T02:17:01;7.68;75.12
86361;SHT31;77015;51.686;4.210;2024-03-23T02:19:26;7.77;75.22
86361;SHT31;77015;51.686;4.210;2024-03-23T02:21:52;7.74;75.29
86361;SHT31;77015;51.686;4.210;2024-03-23T02:24:17;7.81;75.29
86361;SHT31;77015;51.686;4.210;2024-03-23T02:26:42;7.74;75.64
86361;SHT31;77015;51.686;4.210;2024-03-23T02:29:08;7.72;75.74
86361;SHT31;77015;51.686;4.210;2024-03-23T02:31:34;7.72;75.86
86361;SHT31;77015;51.686;4.210;2024-03-23T02:34:00;7.71;75.81
86361;SHT31;77015;51.686;4.210;2024-03-23T02:36:25;7.75;75.69
86361;SHT31;77015;51.686;4.210;2024-03-23T02:38:51;7.82;75.59
86361;SHT31;77015;51.686;4.210;2024-03-23T02:41:17;7.85;75.46
86361;SHT31;77015;51.686;4.210;2024-03-23T02:43:49;7.86;75.49
86361;SHT31;77015;51.686;4.210;2024-03-23T02:46:15;7.86;75.31
86361;SHT31;77015;51.686;4.210;2024-03-23T02:48:40;7.85;74.98
86361;SHT31;77015;51.686;4.210;2024-03-23T02:51:06;7.79;75.27
86361;SHT31;77015;51.686;4.210;2024-03-23T02:53:31;7.86;74.75
86361;SHT31;77015;51.686;4.210;2024-03-23T02:55:58;7.82;74.32
86361;SHT31;77015;51.686;4.210;2024-03-23T02:58:23;7.89;74.29
86361;SHT31;77015;51.686;4.210;2024-03-23T03:00:49;7.91;74.35
86361;SHT31;77015;51.686;4.210;2024-03-23T03:03:14;7.89;73.68
86361;SHT31;77015;51.686;4.210;2024-03-23T03:05:40;7.95;73.21
86361;SHT31;77015;51.686;4.210;2024-03-23T03:08:05;7.99;72.71
86361;SHT31;77015;51.686;4.210;2024-03-23T03:10:31;8.01;73.41
86361;SHT31;77015;51.686;4.210;2024-03-23T03:13:00;8.12;72.34
86361;SHT31;77015;51.686;4.210;2024-03-23T03:15:25;8.17;70.13
86361;SHT31;77015;51.686;4.210;2024-03-23T03:17:51;8.14;70.19
86361;SHT31;77015;51.686;4.210;2024-03-23T03:20:17;8.17;70.60
86361;SHT31;77015;51.686;4.210;2024-03-23T03:22:43;8.22;70.25
86361;SHT31;77015;51.686;4.210;2024-03-23T03:25:09;8.21;70.00
86361;SHT31;77015;51.686;4.210;2024-03-23T03:27:34;8.22;70.52
86361;SHT31;77015;51.686;4.210;2024-03-23T03:30:01;8.17;70.32
86361;SHT31;77015;51.686;4.210;2024-03-23T03:32:30;8.13;70.50
86361;SHT31;77015;51.686;4.210;2024-03-23T03:34:56;8.07;71.29
86361;SHT31;77015;51.686;4.210;2024-03-23T03:37:21;8.02;71.57
86361;SHT31;77015;51.686;4.210;2024-03-23T03:39:47;8.01;71.25
86361;SHT31;77015;51.686;4.210;2024-03-23T03:42:12;7.99;70.91
86361;SHT31;77015;51.686;4.210;2024-03-23T03:44:37;7.98;71.10
86361;SHT31;77015;51.686;4.210;2024-03-23T03:47:05;8.05;70.61
86361;SHT31;77015;51.686;4.210;2024-03-23T03:49:31;8.05;71.18
86361;SHT31;77015;51.686;4.210;2024-03-23T03:51:56;7.96;71.92
86361;SHT31;77015;51.686;4.210;2024-03-23T03:54:22;8.03;71.75
86361;SHT31;77015;51.686;4.210;2024-03-23T03:56:47;8.05;70.99
86361;SHT31;77015;51.686;4.210;2024-03-23T03:59:13;8.06;70.36
86361;SHT31;77015;51.686;4.210;2024-03-23T04:01:38;8.03;70.73
86361;SHT31;77015;51.686;4.210;2024-03-23T04:04:04;8.05;71.14
86361;SHT31;77015;51.686;4.210;2024-03-23T04:06:29;8.05;72.22
86361;SHT31;77015;51.686;4.210;2024-03-23T04:08:54;8.10;72.76
86361;SHT31;77015;51.686;4.210;2024-03-23T04:11:20;8.14;73.22
86361;SHT31;77015;51.686;4.210;2024-03-23T04:13:45;8.10;73.89
86361;SHT31;77015;51.686;4.210;2024-03-23T04:16:11;8.09;74.00
86361;SHT31;77015;51.686;4.210;2024-03-23T04:18:36;8.01;74.15
86361;SHT31;77015;51.686;4.210;2024-03-23T04:21:02;8.01;73.78
86361;SHT31;77015;51.686;4.210;2024-03-23T04:23:28;7.99;74.37
86361;SHT31;77015;51.686;4.210;2024-03-23T04:25:53;7.99;74.34
86361;SHT31;77015;51.686;4.210;2024-03-23T04:28:19;8.03;74.60
86361;SHT31;77015;51.686;4.210;2024-03-23T04:30:45;8.07;74.93
86361;SHT31;77015;51.686;4.210;2024-03-23T04:33:10;8.09;74.96
86361;SHT31;77015;51.686;4.210;2024-03-23T04:35:36;8.03;74.88
86361;SHT31;77015;51.686;4.210;2024-03-23T04:38:01;8.07;74.77
86361;SHT31;77015;51.686;4.210;2024-03-23T04:40:27;8.09;74.69
86361;SHT31;77015;51.686;4.210;2024-03-23T04:42:52;8.07;74.31
86361;SHT31;77015;51.686;4.210;2024-03-23T04:45:18;8.06;74.48
86361;SHT31;77015;51.686;4.210;2024-03-23T04:47:43;8.06;74.26
86361;SHT31;77015;51.686;4.210;2024-03-23T04:50:09;8.12;74.21
86361;SHT31;77015;51.686;4.210;2024-03-23T04:52:38;8.14;74.41
86361;SHT31;77015;51.686;4.210;2024-03-23T04:55:03;8.13;74.79
86361;SHT31;77015;51.686;4.210;2024-03-23T04:57:29;8.13;75.04
86361;SHT31;77015;51.686;4.210;2024-03-23T04:59:55;8.05;74.54
86361;SHT31;77015;51.686;4.210;2024-03-23T05:02:20;8.02;75.23
86361;SHT31;77015;51.686;4.210;2024-03-23T05:04:46;8.01;75.20
86361;SHT31;77015;51.686;4.210;2024-03-23T05:07:11;8.10;75.38
86361;SHT31;77015;51.686;4.210;2024-03-23T05:09:37;8.07;74.75
86361;SHT31;77015;51.686;4.210;2024-03-23T05:12:02;8.05;75.48
86361;SHT31;77015;51.686;4.210;2024-03-23T05:14:28;8.05;75.23
86361;SHT31;77015;51.686;4.210;2024-03-23T05:16:54;7.99;75.21
86361;SHT31;77015;51.686;4.210;2024-03-23T05:19:19;8.05;75.49
86361;SHT31;77015;51.686;4.210;2024-03-23T05:21:45;8.02;75.32
86361;SHT31;77015;51.686;4.210;2024-03-23T05:24:12;8.05;75.33
86361;SHT31;77015;51.686;4.210;2024-03-23T05:26:37;8.02;75.07
86361;SHT31;77015;51.686;4.210;2024-03-23T05:29:03;8.03;75.40
86361;SHT31;77015;51.686;4.210;2024-03-23T05:31:31;8.02;74.95
86361;SHT31;77015;51.686;4.210;2024-03-23T05:33:57;7.98;75.41
86361;SHT31;77015;51.686;4.210;2024-03-23T05:36:22;7.96;75.31
86361;SHT31;77015;51.686;4.210;2024-03-23T05:38:50;7.93;75.53
86361;SHT31;77015;51.686;4.210;2024-03-23T05:41:15;7.98;75.40
86361;SHT31;77015;51.686;4.210;2024-03-23T05:43:41;7.85;75.51
86361;SHT31;77015;51.686;4.210;2024-03-23T05:46:06;7.85;76.23
86361;SHT31;77015;51.686;4.210;2024-03-23T05:48:33;7.79;76.03
86361;SHT31;77015;51.686;4.210;2024-03-23T05:50:58;7.77;76.36
86361;SHT31;77015;51.686;4.210;2024-03-23T05:53:24;7.71;75.71
86361;SHT31;77015;51.686;4.210;2024-03-23T05:55:50;7.67;76.75
86361;SHT31;77015;51.686;4.210;2024-03-23T05:58:17;7.67;76.57
86361;SHT31;77015;51.686;4.210;2024-03-23T06:00:43;7.63;76.41
86361;SHT31;77015;51.686;4.210;2024-03-23T06:03:09;7.64;76.51
86361;SHT31;77015;51.686;4.210;2024-03-23T06:05:38;7.72;76.02
86361;SHT31;77015;51.686;4.210;2024-03-23T06:08:05;7.75;75.73
86361;SHT31;77015;51.686;4.210;2024-03-23T06:10:31;7.65;75.21
86361;SHT31;77015;51.686;4.210;2024-03-23T06:12:59;7.70;75.29
86361;SHT31;77015;51.686;4.210;2024-03-23T06:15:25;7.72;75.00
86361;SHT31;77015;51.686;4.210;2024-03-23T06:17:50;7.78;74.90
86361;SHT31;77015;51.686;4.210;2024-03-23T06:20:16;7.85;75.09
86361;SHT31;77015;51.686;4.210;2024-03-23T06:22:41;7.95;74.97
86361;SHT31;77015;51.686;4.210;2024-03-23T06:25:07;8.02;74.81
86361;SHT31;77015;51.686;4.210;2024-03-23T06:27:33;8.03;74.24
86361;SHT31;77015;51.686;4.210;2024-03-23T06:30:01;7.93;74.67
86361;SHT31;77015;51.686;4.210;2024-03-23T06:32:30;7.89;74.80
86361;SHT31;77015;51.686;4.210;2024-03-23T06:34:55;7.84;73.84
86361;SHT31;77015;51.686;4.210;2024-03-23T06:37:21;7.93;74.53
86361;SHT31;77015;51.686;4.210;2024-03-23T06:39:46;7.92;74.29
86361;SHT31;77015;51.686;4.210;2024-03-23T06:42:12;8.03;74.61
86361;SHT31;77015;51.686;4.210;2024-03-23T06:44:38;8.12;74.09
86361;SHT31;77015;51.686;4.210;2024-03-23T06:47:05;7.98;73.71
86361;SHT31;77015;51.686;4.210;2024-03-23T06:49:30;7.96;74.09
86361;SHT31;77015;51.686;4.210;2024-03-23T06:51:55;7.96;73.92
86361;SHT31;77015;51.686;4.210;2024-03-23T06:54:21;7.92;73.89
86361;SHT31;77015;51.686;4.210;2024-03-23T06:56:46;8.07;73.33
86361;SHT31;77015;51.686;4.210;2024-03-23T06:59:12;8.13;73.13
86361;SHT31;77015;51.686;4.210;2024-03-23T07:01:37;8.28;72.33
86361;SHT31;77015;51.686;4.210;2024-03-23T07:04:03;8.47;71.23
86361;SHT31;77015;51.686;4.210;2024-03-23T07:06:32;8.97;69.95
86361;SHT31;77015;51.686;4.210;2024-03-23T07:08:57;9.46;68.51
86361;SHT31;77015;51.686;4.210;2024-03-23T07:11:23;9.60;68.41
86361;SHT31;77015;51.686;4.210;2024-03-23T07:13:53;9.53;66.62
86361;SHT31;77015;51.686;4.210;2024-03-23T07:16:22;9.56;65.83
86361;SHT31;77015;51.686;4.210;2024-03-23T07:18:50;9.67;67.44
86361;SHT31;77015;51.686;4.210;2024-03-23T07:21:15;9.76;67.11
86361;SHT31;77015;51.686;4.210;2024-03-23T07:23:44;9.89;67.02
86361;SHT31;77015;51.686;4.210;2024-03-23T07:26:12;9.15;68.07
86361;SHT31;77015;51.686;4.210;2024-03-23T07:28:38;8.77;69.53
86361;SHT31;77015;51.686;4.210;2024-03-23T07:31:09;8.84;69.16
86361;SHT31;77015;51.686;4.210;2024-03-23T07:33:41;9.46;67.92
86361;SHT31;77015;51.686;4.210;2024-03-23T07:36:07;9.43;68.67
86361;SHT31;77015;51.686;4.210;2024-03-23T07:38:33;8.75;69.28
86361;SHT31;77015;51.686;4.210;2024-03-23T07:41:10;9.46;68.27
86361;SHT31;77015;51.686;4.210;2024-03-23T07:43:37;9.74;67.26
86361;SHT31;77015;51.686;4.210;2024-03-23T07:46:03;9.74;67.51
86361;SHT31;77015;51.686;4.210;2024-03-23T07:48:32;9.81;67.61
86361;SHT31;77015;51.686;4.210;2024-03-23T07:51:07;9.21;70.07
86361;SHT31;77015;51.686;4.210;2024-03-23T07:53:34;9.12;70.92
86361;SHT31;77015;51.686;4.210;2024-03-23T07:56:02;8.74;69.18
86361;SHT31;77015;51.686;4.210;2024-03-23T07:58:29;8.68;70.49
86361;SHT31;77015;51.686;4.210;2024-03-23T08:00:56;8.64;69.25
86361;SHT31;77015;51.686;4.210;2024-03-23T08:03:28;8.52;70.10
86361;SHT31;77015;51.686;4.210;2024-03-23T08:05:53;8.40;68.51
86361;SHT31;77015;51.686;4.210;2024-03-23T08:08:19;8.42;70.42
86361;SHT31;77015;51.686;4.210;2024-03-23T08:10:48;8.36;68.67
86361;SHT31;77015;51.686;4.210;2024-03-23T08:13:14;8.43;68.83
86361;SHT31;77015;51.686;4.210;2024-03-23T08:15:39;8.57;69.78
86361;SHT31;77015;51.686;4.210;2024-03-23T08:18:05;8.73;70.40
86361;SHT31;77015;51.686;4.210;2024-03-23T08:20:30;8.94;69.93
86361;SHT31;77015;51.686;4.210;2024-03-23T08:22:55;8.87;69.69
86361;SHT31;77015;51.686;4.210;2024-03-23T08:25:21;8.92;69.03
86361;SHT31;77015;51.686;4.210;2024-03-23T08:27:46;9.01;68.61
86361;SHT31;77015;51.686;4.210;2024-03-23T08:30:12;8.88;67.49
86361;SHT31;77015;51.686;4.210;2024-03-23T08:32:38;8.63;68.31
86361;SHT31;77015;51.686;4.210;2024-03-23T08:35:04;8.68;68.57
86361;SHT31;77015;51.686;4.210;2024-03-23T08:37:29;8.61;69.20
86361;SHT31;77015;51.686;4.210;2024-03-23T08:39:55;8.61;68.11
86361;SHT31;77015;51.686;4.210;2024-03-23T08:42:20;8.80;69.37
86361;SHT31;77015;51.686;4.210;2024-03-23T08:44:46;9.02;68.68
86361;SHT31;77015;51.686;4.210;2024-03-23T08:47:17;9.12;67.46
86361;SHT31;77015;51.686;4.210;2024-03-23T08:49:44;9.21;67.07
86361;SHT31;77015;51.686;4.210;2024-03-23T08:52:09;9.08;67.98
86361;SHT31;77015;51.686;4.210;2024-03-23T08:54:35;8.98;67.55
86361;SHT31;77015;51.686;4.210;2024-03-23T08:57:00;8.87;67.50
86361;SHT31;77015;51.686;4.210;2024-03-23T08:59:26;8.85;67.20
86361;SHT31;77015;51.686;4.210;2024-03-23T09:01:52;8.91;67.98
86361;SHT31;77015;51.686;4.210;2024-03-23T09:04:18;8.65;66.57
86361;SHT31;77015;51.686;4.210;2024-03-23T09:06:43;8.47;67.84
86361;SHT31;77015;51.686;4.210;2024-03-23T09:09:09;8.36;67.40
86361;SHT31;77015;51.686;4.210;2024-03-23T09:11:34;8.23;66.59
86361;SHT31;77015;51.686;4.210;2024-03-23T09:14:00;8.39;67.51
86361;SHT31;77015;51.686;4.210;2024-03-23T09:16:26;8.75;66.80
86361;SHT31;77015;51.686;4.210;2024-03-23T09:18:52;9.11;67.30
86361;SHT31;77015;51.686;4.210;2024-03-23T09:21:17;9.47;67.55
86361;SHT31;77015;51.686;4.210;2024-03-23T09:23:43;9.56;66.78
86361;SHT31;77015;51.686;4.210;2024-03-23T09:26:09;9.67;67.00
86361;SHT31;77015;51.686;4.210;2024-03-23T09:28:35;9.62;67.15
86361;SHT31;77015;51.686;4.210;2024-03-23T09:31:07;9.35;65.53
86361;SHT31;77015;51.686;4.210;2024-03-23T09:33:34;9.18;65.35
86361;SHT31;77015;51.686;4.210;2024-03-23T09:36:04;9.23;68.89
86361;SHT31;77015;51.686;4.210;2024-03-23T09:38:29;8.74;72.71
86361;SHT31;77015;51.686;4.210;2024-03-23T09:40:56;8.47;73.68
86361;SHT31;77015;51.686;4.210;2024-03-23T09:43:22;8.56;73.22
86361;SHT31;77015;51.686;4.210;2024-03-23T09:45:49;8.07;70.29
86361;SHT31;77015;51.686;4.210;2024-03-23T09:48:15;7.71;72.00
86361;SHT31;77015;51.686;4.210;2024-03-23T09:50:42;7.40;73.46
86361;SHT31;77015;51.686;4.210;2024-03-23T09:53:09;7.47;74.63
86361;SHT31;77015;51.686;4.210;2024-03-23T09:55:35;7.79;75.08
86361;SHT31;77015;51.686;4.210;2024-03-23T09:58:02;8.34;74.38
86361;SHT31;77015;51.686;4.210;2024-03-23T10:00:27;8.65;71.52
86361;SHT31;77015;51.686;4.210;2024-03-23T10:02:56;8.89;70.84
86361;SHT31;77015;51.686;4.210;2024-03-23T10:05:26;9.15;69.02
86361;SHT31;77015;51.686;4.210;2024-03-23T10:07:53;9.35;68.02
86361;SHT31;77015;51.686;4.210;2024-03-23T10:10:19;9.52;67.48
86361;SHT31;77015;51.686;4.210;2024-03-23T10:12:46;9.54;66.42
86361;SHT31;77015;51.686;4.210;2024-03-23T10:15:21;9.64;69.04
86361;SHT31;77015;51.686;4.210;2024-03-23T10:17:48;9.83;68.03
86361;SHT31;77015;51.686;4.210;2024-03-23T10:20:19;9.23;65.27
86361;SHT31;77015;51.686;4.210;2024-03-23T10:22:45;9.23;67.28
86361;SHT31;77015;51.686;4.210;2024-03-23T10:25:11;9.21;66.86
86361;SHT31;77015;51.686;4.210;2024-03-23T10:27:37;9.10;67.25
86361;SHT31;77015;51.686;4.210;2024-03-23T10:30:15;9.12;68.78
86361;SHT31;77015;51.686;4.210;2024-03-23T10:32:41;9.18;65.97
86361;SHT31;77015;51.686;4.210;2024-03-23T10:35:20;9.10;66.41
86361;SHT31;77015;51.686;4.210;2024-03-23T10:37:48;9.19;68.39
86361;SHT31;77015;51.686;4.210;2024-03-23T10:40:17;9.14;66.94
86361;SHT31;77015;51.686;4.210;2024-03-23T10:42:46;9.10;66.77
86361;SHT31;77015;51.686;4.210;2024-03-23T10:45:12;9.04;66.59
86361;SHT31;77015;51.686;4.210;2024-03-23T10:47:37;9.43;66.72
86361;SHT31;77015;51.686;4.210;2024-03-23T10:50:04;9.54;63.51
86361;SHT31;77015;51.686;4.210;2024-03-23T10:52:32;9.74;64.83
86361;SHT31;77015;51.686;4.210;2024-03-23T10:54:59;9.90;63.77
86361;SHT31;77015;51.686;4.210;2024-03-23T10:57:51;9.80;64.55
86361;SHT31;77015;51.686;4.210;2024-03-23T11:00:18;9.42;63.66
86361;SHT31;77015;51.686;4.210;2024-03-23T11:02:44;9.36;64.65
86361;SHT31;77015;51.686;4.210;2024-03-23T11:05:29;8.97;66.85
86361;SHT31;77015;51.686;4.210;2024-03-23T11:07:55;8.91;67.59
86361;SHT31;77015;51.686;4.210;2024-03-23T11:10:29;8.77;67.92
86361;SHT31;77015;51.686;4.210;2024-03-23T11:12:56;8.95;68.74
86361;SHT31;77015;51.686;4.210;2024-03-23T11:15:23;9.12;68.69
86361;SHT31;77015;51.686;4.210;2024-03-23T11:18:05;9.29;68.38
86361;SHT31;77015;51.686;4.210;2024-03-23T11:20:34;9.35;68.10
86361;SHT31;77015;51.686;4.210;2024-03-23T11:23:00;9.56;68.14
86361;SHT31;77015;51.686;4.210;2024-03-23T11:25:27;9.49;66.68
86361;SHT31;77015;51.686;4.210;2024-03-23T11:28:12;9.42;68.23
86361;SHT31;77015;51.686;4.210;2024-03-23T11:30:37;9.46;69.50
86361;SHT31;77015;51.686;4.210;2024-03-23T11:33:06;9.22;67.75
86361;SHT31;77015;51.686;4.210;2024-03-23T11:35:42;8.71;67.71
86361;SHT31;77015;51.686;4.210;2024-03-23T11:38:10;8.40;69.14
86361;SHT31;77015;51.686;4.210;2024-03-23T11:40:38;8.28;69.57
86361;SHT31;77015;51.686;4.210;2024-03-23T11:43:05;8.19;70.94
86361;SHT31;77015;51.686;4.210;2024-03-23T11:45:36;8.14;70.46
86361;SHT31;77015;51.686;4.210;2024-03-23T11:48:22;8.28;70.39
86361;SHT31;77015;51.686;4.210;2024-03-23T11:50:50;8.67;69.60
86361;SHT31;77015;51.686;4.210;2024-03-23T11:53:21;9.42;68.19
86361;SHT31;77015;51.686;4.210;2024-03-23T11:55:59;9.69;67.10
86361;SHT31;77015;51.686;4.210;2024-03-23T11:58:26;9.73;66.58
86361;SHT31;77015;51.686;4.210;2024-03-23T12:00:55;9.12;68.43
86361;SHT31;77015;51.686;4.210;2024-03-23T12:03:21;8.92;69.54
86361;SHT31;77015;51.686;4.210;2024-03-23T12:05:51;9.08;70.03
86361;SHT31;77015;51.686;4.210;2024-03-23T12:10:48;10.12;67.14
86361;SHT31;77015;51.686;4.210;2024-03-23T12:13:18;10.20;64.20
86361;SHT31;77015;51.686;4.210;2024-03-23T12:15:45;9.93;65.60
86361;SHT31;77015;51.686;4.210;2024-03-23T12:18:11;9.79;65.97
86361;SHT31;77015;51.686;4.210;2024-03-23T12:20:37;10.02;64.88
86361;SHT31;77015;51.686;4.210;2024-03-23T12:23:07;10.01;65.09
86361;SHT31;77015;51.686;4.210;2024-03-23T12:25:34;10.25;61.42
86361;SHT31;77015;51.686;4.210;2024-03-23T12:28:00;10.25;63.11
86361;SHT31;77015;51.686;4.210;2024-03-23T12:30:25;10.32;63.27
86361;SHT31;77015;51.686;4.210;2024-03-23T12:32:51;10.24;65.20
86361;SHT31;77015;51.686;4.210;2024-03-23T12:35:16;9.97;64.28
86361;SHT31;77015;51.686;4.210;2024-03-23T12:37:43;10.04;66.72
86361;SHT31;77015;51.686;4.210;2024-03-23T12:40:09;9.95;66.61
86361;SHT31;77015;51.686;4.210;2024-03-23T12:42:34;9.93;64.83
86361;SHT31;77015;51.686;4.210;2024-03-23T12:45:00;9.95;63.74
86361;SHT31;77015;51.686;4.210;2024-03-23T12:47:25;9.70;64.32
86361;SHT31;77015;51.686;4.210;2024-03-23T12:49:51;9.73;61.30
86361;SHT31;77015;51.686;4.210;2024-03-23T12:52:17;9.52;60.73
86361;SHT31;77015;51.686;4.210;2024-03-23T12:54:43;9.62;61.84
86361;SHT31;77015;51.686;4.210;2024-03-23T12:57:08;9.83;62.94
86361;SHT31;77015;51.686;4.210;2024-03-23T12:59:34;9.83;62.91
86361;SHT31;77015;51.686;4.210;2024-03-23T13:02:01;9.81;62.49
86361;SHT31;77015;51.686;4.210;2024-03-23T13:04:26;9.62;62.14
86361;SHT31;77015;51.686;4.210;2024-03-23T13:06:51;9.90;63.46
86361;SHT31;77015;51.686;4.210;2024-03-23T13:09:17;10.11;61.79
86361;SHT31;77015;51.686;4.210;2024-03-23T13:11:42;10.01;59.55
86361;SHT31;77015;51.686;4.210;2024-03-23T13:14:08;10.12;60.40
86361;SHT31;77015;51.686;4.210;2024-03-23T13:16:33;10.62;62.54
86361;SHT31;77015;51.686;4.210;2024-03-23T13:18:59;10.75;63.21
86361;SHT31;77015;51.686;4.210;2024-03-23T13:21:26;10.38;62.47
86361;SHT31;77015;51.686;4.210;2024-03-23T13:23:52;10.28;64.22
86361;SHT31;77015;51.686;4.210;2024-03-23T13:26:17;10.38;64.55
86361;SHT31;77015;51.686;4.210;2024-03-23T13:28:43;9.81;63.01
86361;SHT31;77015;51.686;4.210;2024-03-23T13:31:10;9.64;63.35
86361;SHT31;77015;51.686;4.210;2024-03-23T13:33:35;9.43;62.89
86361;SHT31;77015;51.686;4.210;2024-03-23T13:36:01;9.19;65.04
86361;SHT31;77015;51.686;4.210;2024-03-23T13:38:27;8.91;65.67
86361;SHT31;77015;51.686;4.210;2024-03-23T13:40:57;8.56;68.82
86361;SHT31;77015;51.686;4.210;2024-03-23T13:43:25;7.93;70.95
86361;SHT31;77015;51.686;4.210;2024-03-23T13:45:55;7.33;73.32
86361;SHT31;77015;51.686;4.210;2024-03-23T13:48:23;6.95;74.34
86361;SHT31;77015;51.686;4.210;2024-03-23T13:50:59;6.42;77.81
86361;SHT31;77015;51.686;4.210;2024-03-23T13:53:25;6.16;78.61
86361;SHT31;77015;51.686;4.210;2024-03-23T13:55:50;6.13;77.78
86361;SHT31;77015;51.686;4.210;2024-03-23T13:58:16;6.37;77.81
86361;SHT31;77015;51.686;4.210;2024-03-23T14:00:41;6.55;76.98
86361;SHT31;77015;51.686;4.210;2024-03-23T14:03:11;6.17;76.30
86361;SHT31;77015;51.686;4.210;2024-03-23T14:05:37;5.73;78.52
86361;SHT31;77015;51.686;4.210;2024-03-23T14:08:07;5.76;79.78
86361;SHT31;77015;51.686;4.210;2024-03-23T14:10:33;5.94;80.12
86361;SHT31;77015;51.686;4.210;2024-03-23T14:12:58;6.10;79.83
86361;SHT31;77015;51.686;4.210;2024-03-23T14:15:27;6.34;80.53
86361;SHT31;77015;51.686;4.210;2024-03-23T14:17:53;6.64;80.70
86361;SHT31;77015;51.686;4.210;2024-03-23T14:20:20;6.88;76.64
86361;SHT31;77015;51.686;4.210;2024-03-23T14:22:45;6.92;74.09
86361;SHT31;77015;51.686;4.210;2024-03-23T14:25:11;6.78;75.19
86361;SHT31;77015;51.686;4.210;2024-03-23T14:27:36;6.51;76.41
86361;SHT31;77015;51.686;4.210;2024-03-23T14:30:04;6.14;80.06
86361;SHT31;77015;51.686;4.210;2024-03-23T14:32:32;5.92;80.52
86361;SHT31;77015;51.686;4.210;2024-03-23T14:35:05;5.73;79.00
86361;SHT31;77015;51.686;4.210;2024-03-23T14:37:36;5.51;79.95
86361;SHT31;77015;51.686;4.210;2024-03-23T14:40:02;5.55;81.62
86361;SHT31;77015;51.686;4.210;2024-03-23T14:42:28;5.67;83.03
86361;SHT31;77015;51.686;4.210;2024-03-23T14:44:53;5.77;79.63
86361;SHT31;77015;51.686;4.210;2024-03-23T14:47:19;5.63;77.33
86361;SHT31;77015;51.686;4.210;2024-03-23T14:49:46;5.77;78.92
86361;SHT31;77015;51.686;4.210;2024-03-23T14:52:19;5.92;80.38
86361;SHT31;77015;51.686;4.210;2024-03-23T14:54:45;6.10;80.84
86361;SHT31;77015;51.686;4.210;2024-03-23T14:57:12;6.37;77.54
86361;SHT31;77015;51.686;4.210;2024-03-23T14:59:37;6.62;75.01
86361;SHT31;77015;51.686;4.210;2024-03-23T15:02:04;6.68;75.48
86361;SHT31;77015;51.686;4.210;2024-03-23T15:04:29;6.71;74.38
86361;SHT31;77015;51.686;4.210;2024-03-23T15:06:55;6.81;73.36
86361;SHT31;77015;51.686;4.210;2024-03-23T15:09:20;6.88;74.33
86361;SHT31;77015;51.686;4.210;2024-03-23T15:11:46;7.03;74.82
86361;SHT31;77015;51.686;4.210;2024-03-23T15:14:11;7.24;71.68
86361;SHT31;77015;51.686;4.210;2024-03-23T15:16:37;7.22;72.18
86361;SHT31;77015;51.686;4.210;2024-03-23T15:19:02;7.37;71.23
86361;SHT31;77015;51.686;4.210;2024-03-23T15:21:28;7.64;72.39
86361;SHT31;77015;51.686;4.210;2024-03-23T15:23:53;8.06;72.59
86361;SHT31;77015;51.686;4.210;2024-03-23T15:26:19;8.57;70.13
86361;SHT31;77015;51.686;4.210;2024-03-23T15:28:48;8.94;71.11
86361;SHT31;77015;51.686;4.210;2024-03-23T15:31:19;9.25;70.25
86361;SHT31;77015;51.686;4.210;2024-03-23T15:33:45;9.23;69.97
86361;SHT31;77015;51.686;4.210;2024-03-23T15:36:10;9.26;70.16
86361;SHT31;77015;51.686;4.210;2024-03-23T15:38:36;9.28;71.01
86361;SHT31;77015;51.686;4.210;2024-03-23T15:41:04;9.21;70.95
86361;SHT31;77015;51.686;4.210;2024-03-23T15:43:30;9.12;70.48
86361;SHT31;77015;51.686;4.210;2024-03-23T15:46:01;9.07;70.45
86361;SHT31;77015;51.686;4.210;2024-03-23T15:48:27;9.04;71.10
86361;SHT31;77015;51.686;4.210;2024-03-23T15:50:54;9.29;71.51
86361;SHT31;77015;51.686;4.210;2024-03-23T15:53:21;9.46;67.91
86361;SHT31;77015;51.686;4.210;2024-03-23T15:55:54;9.71;66.62
86361;SHT31;77015;51.686;4.210;2024-03-23T15:58:19;9.69;66.41
86361;SHT31;77015;51.686;4.210;2024-03-23T16:00:53;9.59;66.36
86361;SHT31;77015;51.686;4.210;2024-03-23T16:03:19;9.57;66.82
86361;SHT31;77015;51.686;4.210;2024-03-23T16:05:53;9.80;66.49
86361;SHT31;77015;51.686;4.210;2024-03-23T16:08:19;9.50;66.41
86361;SHT31;77015;51.686;4.210;2024-03-23T16:10:45;9.43;66.67
86361;SHT31;77015;51.686;4.210;2024-03-23T16:13:11;9.32;68.28
86361;SHT31;77015;51.686;4.210;2024-03-23T16:15:36;9.28;67.05
86361;SHT31;77015;51.686;4.210;2024-03-23T16:18:02;9.16;66.01
86361;SHT31;77015;51.686;4.210;2024-03-23T16:20:28;9.16;65.32
86361;SHT31;77015;51.686;4.210;2024-03-23T16:22:53;9.19;66.23
86361;SHT31;77015;51.686;4.210;2024-03-23T16:25:19;9.22;65.31
86361;SHT31;77015;51.686;4.210;2024-03-23T16:27:45;9.32;64.10
86361;SHT31;77015;51.686;4.210;2024-03-23T16:30:11;9.15;64.36
86361;SHT31;77015;51.686;4.210;2024-03-23T16:32:37;8.92;64.02
86361;SHT31;77015;51.686;4.210;2024-03-23T16:35:05;8.73;65.13
86361;SHT31;77015;51.686;4.210;2024-03-23T16:37:30;8.73;66.31